Flight Track Log - Related Links

Times and Time Zones

All times are in EDT time to prevent confusion due to time zone crossing. See the AAL1624 flight status page for this flight to view local times or setup timezone preferences in your user account.

Time Position Orientation Groundspeed Altitude Reporting Facility
EDT Latitude Longitude Course Direction KTS MPH feet Rate Location/Type
Wed 07:00:52 PM 33.9320 -118.4470 250° West 183 211 1,600  Level FlightAware
Wed 07:01:07 PM 33.9260 -118.4590 239° Southwest 192 221 1,800 1,050 Climbing FlightAware
Wed 07:01:32 PM 33.9090 -118.4850 232° Southwest 222 255 2,300 1,200 Climbing FlightAware
Wed 07:02:02 PM 33.8890 -118.5150 231° Southwest 253 291 2,900 1,418 Climbing FlightAware
Wed 07:02:27 PM 33.8680 -118.5370 221° Southwest 264 304 3,600 1,950 Climbing FlightAware
Wed 07:02:42 PM 33.8510 -118.5400 188° South 259 298 4,200 2,533 Climbing FlightAware
Wed 07:03:12 PM 33.8170 -118.5360 174° South 258 297 5,500 2,727 Climbing FlightAware
Wed 07:03:37 PM 33.7850 -118.5320 174° South 257 296 6,700 3,164 Climbing FlightAware
Wed 07:04:07 PM 33.7400 -118.5260 174° South 259 298 8,400 3,000 Climbing FlightAware
Wed 07:04:37 PM 33.7030 -118.5140 165° South 258 297 9,700 2,550 Climbing FlightAware
Wed 07:04:47 PM 33.6960 -118.5040 130° Southeast 259 298 10,100 1,680 Climbing FlightAware
Wed 07:05:02 PM 33.6870 -118.4820 116° Southeast 277 319 10,400 1,964 Climbing FlightAware
Wed 07:05:42 PM 33.6670 -118.4200 111° Southeast 299 344 11,900 2,329 Climbing FlightAware
Wed 07:06:27 PM 33.6480 -118.3500 108° East 318 366 13,700 2,541 Climbing FlightAware
Wed 07:07:07 PM 33.6450 -118.2750 93° East 335 386 15,500 1,800 Climbing FlightAware
Wed 07:07:47 PM 33.6450 -118.1970 90° East 380 437 16,100 1,553 Climbing FlightAware
Wed 07:08:32 PM 33.6440 -118.0980 91° East 400 460 17,700 2,133 Climbing FlightAware
Wed 07:09:17 PM 33.6450 -117.9980 89° East 414 476 19,300 2,047 Climbing FlightAware
Wed 07:09:57 PM 33.6450 -117.9050 90° East 425 489 20,600 1,800 Climbing FlightAware
Wed 07:10:37 PM 33.6440 -117.8100 91° East 437 503 21,700 1,624 Climbing FlightAware
Wed 07:11:22 PM 33.6440 -117.6960 90° East 451 519 22,900 1,553 Climbing FlightAware
Wed 07:12:02 PM 33.6430 -117.5960 91° East 461 531 23,900 1,412 Climbing FlightAware
Wed 07:12:47 PM 33.6430 -117.4820 90° East 472 543 24,900 1,553 Climbing FlightAware
Wed 07:13:27 PM 33.6420 -117.3760 91° East 474 545 26,100 1,875 Climbing FlightAware
Wed 07:14:07 PM 33.6410 -117.2720 91° East 470 541 27,400 1,835 Climbing FlightAware
Wed 07:14:52 PM 33.6400 -117.1500 91° East 469 540 28,700 1,575 Climbing FlightAware
Wed 07:15:27 PM 33.6400 -117.0650 90° East 470 541 29,500 1,482 Climbing FlightAware
Wed 07:16:17 PM 33.6380 -116.9340 91° East 469 540 30,800 1,533 Climbing FlightAware
Wed 07:16:57 PM 33.6450 -116.8300 85° East 474 545 31,800 1,412 Climbing FlightAware
Wed 07:17:42 PM 33.6690 -116.7190 75° East 474 545 32,800 1,600 Climbing FlightAware
Wed 07:18:27 PM 33.6950 -116.6010 75° East 465 535 34,200 1,624 Climbing FlightAware
Wed 07:19:07 PM 33.7160 -116.5030 76° East 459 528 35,100 1,120 Climbing FlightAware
Wed 07:19:42 PM 33.7360 -116.4150 75° East 459 528 35,600 675 Climbing FlightAware
Wed 07:20:27 PM 33.7590 -116.3090 75° East 467 537 36,000 600 Climbing FlightAware
Wed 07:21:12 PM 33.7830 -116.1980 75° East 472 543 36,500 706 Climbing FlightAware
Wed 07:21:52 PM 33.8070 -116.0900 75° East 475 547 37,000 375 Climbing FlightAware
Wed 07:22:32 PM 33.8280 -115.9940 75° East 478 550 37,000  Level FlightAware
Wed 07:23:12 PM 33.8470 -115.9070 75° East 478 550 37,000  Level FlightAware
Wed 07:24:02 PM 33.8710 -115.7970 75° East 478 550 37,000  Level FlightAware
Wed 07:24:32 PM 33.8860 -115.7320 74° East 478 550 37,000  Level FlightAware
Wed 07:25:22 PM 33.9100 -115.6220 75° East 478 550 37,000  Level FlightAware
Wed 07:26:02 PM 33.9300 -115.5350 74° East 478 550 37,000  Level FlightAware
Wed 07:26:42 PM 33.9490 -115.4470 75° East 478 550 37,000  Level FlightAware
Wed 07:27:22 PM 33.9690 -115.3600 74° East 478 550 37,000  Level FlightAware
Wed 07:28:12 PM 33.9930 -115.2500 75° East 478 550 37,000  Level FlightAware
Wed 07:28:52 PM 34.0120 -115.1630 75° East 478 550 37,000  Level FlightAware
Wed 07:29:32 PM 34.0320 -115.0750 75° East 478 550 37,000  Level FlightAware
Wed 07:30:12 PM 34.0510 -114.9870 75° East 478 550 37,000  Level FlightAware
Wed 07:31:02 PM 34.0760 -114.8780 74° East 478 550 37,000  Level FlightAware
Wed 07:31:42 PM 34.1310 -114.5800 77° East 490 564 37,000  Level FlightAware
Wed 07:32:17 PM 34.1570 -114.4850 72° East 492 566 37,000  Level FlightAware
Wed 07:33:07 PM 34.1930 -114.3590 71° East 494 568 37,000  Level FlightAware
Wed 07:33:42 PM 34.2180 -114.2690 71° East 495 570 37,000  Level FlightAware
Wed 07:34:27 PM 34.2520 -114.1500 71° East 497 572 37,000  Level FlightAware
Wed 07:35:02 PM 34.2770 -114.0600 71° East 499 574 37,000  Level FlightAware
Wed 07:35:52 PM 34.3160 -113.9180 72° East 500 575 37,000  Level FlightAware
Wed 07:36:32 PM 34.3500 -113.7950 71° East 502 578 37,000  Level FlightAware
Wed 07:37:17 PM 34.3830 -113.6730 72° East 502 578 37,000  Level FlightAware
Wed 07:37:57 PM 34.4140 -113.5620 71° East 504 580 37,000  Level FlightAware
Wed 07:38:42 PM 34.4460 -113.4440 72° East 504 580 37,000  Level FlightAware
Wed 07:39:22 PM 34.4750 -113.3350 72° East 503 579 37,000  Level FlightAware
Wed 07:40:02 PM 34.5030 -113.2290 72° East 501 577 37,000  Level FlightAware
Wed 07:40:47 PM 34.5360 -113.1080 72° East 500 575 37,000  Level FlightAware
Wed 07:41:27 PM 34.5650 -113.0010 72° East 501 577 37,000  Level FlightAware
Wed 07:42:12 PM 34.5970 -112.8820 72° East 503 579 37,000  Level FlightAware
Wed 07:42:52 PM 34.6250 -112.7760 72° East 502 578 37,000  Level FlightAware
Wed 07:43:37 PM 34.6580 -112.6510 72° East 504 580 37,000  Level FlightAware
Wed 07:44:17 PM 34.6850 -112.5460 73° East 506 582 37,000  Level FlightAware
Wed 07:44:57 PM 34.7120 -112.4420 72° East 506 582 37,000  Level FlightAware
Wed 07:45:42 PM 34.7410 -112.3170 74° East 506 582 37,000  Level FlightAware
Wed 07:46:22 PM 34.7650 -112.2060 75° East 507 583 37,000  Level FlightAware
Wed 07:47:07 PM 34.7940 -112.0790 74° East 507 583 37,000  Level FlightAware
Wed 07:47:42 PM 34.8140 -111.9900 75° East 508 585 37,000  Level FlightAware
Wed 07:48:42 PM 34.8470 -111.8490 74° East 509 586 37,000  Level FlightAware
Wed 07:49:27 PM 34.8820 -111.6930 75° East 509 586 37,000  Level FlightAware
Wed 07:50:07 PM 34.9040 -111.5930 75° East 509 586 37,000  Level FlightAware
Wed 07:50:47 PM 34.9250 -111.4990 75° East 510 587 37,000  Level FlightAware
Wed 07:51:27 PM 34.9490 -111.3880 75° East 510 587 37,000  Level FlightAware
Wed 07:52:12 PM 34.9770 -111.2630 75° East 510 587 37,000  Level FlightAware
Wed 07:53:17 PM 35.0140 -111.0950 75° East 513 590 37,000  Level FlightAware
Wed 07:54:07 PM 35.0450 -110.9550 75° East 514 592 37,000  Level FlightAware
Wed 07:54:42 PM 35.0690 -110.8430 75° East 514 592 37,000  Level FlightAware
Wed 07:55:27 PM 35.0950 -110.7210 75° East 514 592 37,000  Level FlightAware
Wed 07:56:07 PM 35.1180 -110.6150 75° East 514 592 37,000  Level FlightAware
Wed 07:56:52 PM 35.1460 -110.4840 75° East 515 593 37,000  Level FlightAware
Wed 07:57:32 PM 35.1690 -110.3790 75° East 515 593 37,000  Level FlightAware
Wed 07:58:12 PM 35.1900 -110.2830 75° East 515 593 37,000  Level FlightAware
Wed 07:58:52 PM 35.2110 -110.1880 75° East 515 593 37,000  Level FlightAware
Wed 07:59:42 PM 35.2370 -110.0680 75° East 515 593 37,000  Level FlightAware
Wed 08:00:22 PM 35.2580 -109.9720 75° East 515 593 37,000  Level FlightAware
Wed 08:01:02 PM 35.2790 -109.8760 75° East 515 593 37,000  Level FlightAware
Wed 08:01:42 PM 35.3000 -109.7800 75° East 515 593 37,000  Level FlightAware
Wed 08:02:22 PM 35.3210 -109.6850 75° East 515 593 37,000  Level FlightAware
Wed 08:03:12 PM 35.3470 -109.5650 75° East 515 593 37,000  Level FlightAware
Wed 08:03:52 PM 35.3680 -109.4690 75° East 515 593 37,000  Level FlightAware
Wed 08:04:32 PM 35.3890 -109.3730 75° East 515 593 37,000  Level FlightAware
Wed 08:05:12 PM 35.4440 -109.0350 79° East 533 613 37,000  Level FlightAware
Wed 08:06:02 PM 35.4710 -108.9010 76° East 533 613 37,000  Level FlightAware
Wed 08:06:32 PM 35.4940 -108.8090 73° East 532 612 37,000  Level FlightAware
Wed 08:07:32 PM 35.5410 -108.6360 71° East 533 613 37,000  Level FlightAware
Wed 08:08:17 PM 35.5780 -108.4980 72° East 534 615 37,000  Level FlightAware
Wed 08:09:02 PM 35.6120 -108.3700 72° East 537 618 37,000  Level FlightAware
Wed 08:09:42 PM 35.6440 -108.2530 71° East 540 621 37,000  Level FlightAware
Wed 08:10:27 PM 35.6790 -108.1200 72° East 540 621 37,000  Level FlightAware
Wed 08:11:07 PM 35.7110 -108.0010 72° East 543 625 37,000  Level FlightAware
Wed 08:11:42 PM 35.7360 -107.9050 72° East 542 624 37,000  Level FlightAware
Wed 08:12:32 PM 35.7740 -107.7610 72° East 538 619 37,000  Level FlightAware
Wed 08:13:07 PM 35.8020 -107.6530 72° East 537 618 37,000  Level FlightAware
Wed 08:13:57 PM 35.8380 -107.5150 72° East 538 619 37,000  Level FlightAware
Wed 08:14:37 PM 35.8710 -107.3910 72° East 538 619 37,000  Level FlightAware
Wed 08:15:17 PM 35.9010 -107.2730 73° East 539 620 37,000  Level FlightAware
Wed 08:16:02 PM 35.9340 -107.1450 72° East 541 623 37,000  Level FlightAware
Wed 08:16:42 PM 35.9650 -107.0250 72° East 542 624 37,000  Level FlightAware
Wed 08:17:17 PM 35.9900 -106.9260 73° East 541 623 37,000  Level FlightAware
Wed 08:18:07 PM 36.0270 -106.7800 73° East 540 621 37,000  Level FlightAware
Wed 08:18:47 PM 36.0580 -106.6570 73° East 541 623 37,000  Level FlightAware
Wed 08:19:22 PM 36.0840 -106.5550 72° East 538 619 37,000  Level FlightAware
Wed 08:20:12 PM 36.1200 -106.4100 73° East 538 619 37,000  Level FlightAware
Wed 08:21:07 PM 36.1570 -106.2640 73° East 537 618 37,000  Level FlightAware
Wed 08:21:47 PM 36.1840 -106.1640 71° East 537 618 37,000  Level FlightAware
Wed 08:22:27 PM 36.2100 -106.0650 72° East 537 618 37,000  Level FlightAware
Wed 08:23:07 PM 36.2360 -105.9650 72° East 537 618 37,000  Level FlightAware
Wed 08:23:57 PM 36.2680 -105.8410 72° East 537 618 37,000  Level FlightAware
Wed 08:24:37 PM 36.2940 -105.7410 72° East 537 618 37,000  Level FlightAware
Wed 08:25:17 PM 36.3210 -105.6410 71° East 537 618 37,000  Level FlightAware
Wed 08:25:57 PM 36.3470 -105.5420 72° East 537 618 37,000  Level FlightAware
Wed 08:26:37 PM 36.3730 -105.4420 72° East 537 618 37,000  Level FlightAware
Wed 08:27:07 PM 36.3920 -105.3670 73° East 537 618 37,000  Level FlightAware
Wed 08:27:47 PM 36.4180 -105.2670 72° East 537 618 37,000  Level FlightAware
Wed 08:28:37 PM 36.4510 -105.1420 72° East 537 618 37,000  Level FlightAware
Wed 08:29:17 PM 36.4770 -105.0420 72° East 537 618 37,000  Level FlightAware
Wed 08:29:57 PM 36.5030 -104.9430 72° East 537 618 37,000  Level FlightAware
Wed 08:30:21 PM 36.5836 -104.6214 72° East 555 639 37,000  Level Kansas Center
Wed 08:31:00 PM 36.6200 -104.5192 66° East 548 631 37,000  Level Albuquerque Center
Wed 08:32:01 PM 36.6953 -104.3147 65° Northeast 549 632 37,000  Level Albuquerque Center
Wed 08:33:03 PM 36.7575 -104.1425 66° East 543 625 37,000  Level Albuquerque Center
Wed 08:38:43 PM 37.1106 -103.1430 66° East 549 632 37,000  Level FlightAware
Wed 08:39:14 PM 37.1410 -103.0560 66° East 548 631 37,000  Level FlightAware
Wed 08:39:44 PM 37.1720 -102.9670 66° East 554 638 37,000  Level FlightAware
Wed 08:40:14 PM 37.2024 -102.8790 67° East 555 639 37,000  Level FlightAware
Wed 08:40:44 PM 37.2330 -102.7890 67° East 554 638 37,000  Level FlightAware
Wed 08:41:15 PM 37.2641 -102.6990 67° East 553 636 37,000  Level FlightAware
Wed 08:41:42 PM 37.2822 -102.6417 67° East 552 635 37,000  Level Kansas Center
Wed 08:42:17 PM 37.3219 -102.5292 66° East 552 635 37,000  Level Albuquerque Center
Wed 08:43:19 PM 37.3803 -102.3586 67° East 553 636 37,000  Level Albuquerque Center
Wed 08:44:21 PM 37.4472 -102.1622 67° East 549 632 37,000  Level Albuquerque Center
Wed 08:45:22 PM 37.5031 -101.9919 67° East 550 633 37,000  Level Albuquerque Center
Wed 08:46:24 PM 37.5603 -101.8225 67° East 549 632 37,000  Level Albuquerque Center
Wed 08:46:49 PM 37.5881 -101.7367 68° East 550 633 37,000  Level Kansas Center
Wed 08:47:53 PM 37.6447 -101.5669 67° East 549 632 37,000  Level Kansas Center
Wed 08:48:54 PM 37.7103 -101.3681 67° East 548 631 37,000  Level Kansas Center
Wed 08:49:55 PM 37.7667 -101.1944 68° East 552 635 37,000  Level Kansas Center
Wed 08:50:56 PM 37.8333 -100.9903 67° East 554 638 37,000  Level Kansas Center
Wed 08:51:59 PM 37.8908 -100.8131 68° East 557 641 37,000  Level Kansas Center
Wed 08:53:00 PM 37.9486 -100.6350 68° East 563 648 37,000  Level Kansas Center
Wed 08:54:03 PM 38.0189 -100.4311 66° East 563 648 37,000  Level Kansas Center
Wed 08:55:04 PM 38.0783 -100.2561 67° East 563 648 37,000  Level Kansas Center
Wed 08:56:04 PM 38.1464 -100.0481 67° East 568 654 37,000  Level Kansas Center
Wed 08:57:07 PM 38.2050 -99.8725 67° East 566 651 37,000  Level Kansas Center
Wed 08:58:09 PM 38.2633 -99.6967 67° East 564 649 37,000  Level Kansas Center
Wed 08:59:09 PM 38.3308 -99.4953 67° East 557 641 37,000  Level Kansas Center
Wed 09:00:10 PM 38.3817 -99.3353 68° East 556 640 37,000  Level Kansas Center
Wed 09:01:14 PM 38.4422 -99.1489 67° East 564 649 37,000  Level Kansas Center
Wed 09:02:14 PM 38.5144 -98.9247 68° East 567 652 37,000  Level Kansas Center
Wed 09:03:17 PM 38.5769 -98.7361 67° East 573 659 37,000  Level Kansas Center
Wed 09:04:18 PM 38.6361 -98.5497 68° East 565 650 37,000  Level Kansas Center
Wed 09:05:19 PM 38.6947 -98.3639 68° East 561 646 37,000  Level Kansas Center
Wed 09:06:22 PM 38.7533 -98.1772 68° East 562 647 37,000  Level Kansas Center
Wed 09:07:24 PM 38.8111 -97.9914 68° East 559 643 37,000  Level Kansas Center
Wed 09:08:25 PM 38.8753 -97.7864 68° East 553 636 37,000  Level Kansas Center
Wed 09:09:27 PM 38.9283 -97.6128 69° East 546 628 37,000  Level Kansas Center
Wed 09:10:28 PM 38.9833 -97.4061 71° East 547 629 37,000  Level Kansas Center
Wed 09:11:28 PM 39.0297 -97.2289 71° East 546 628 37,000 -56 Level Kansas Center
Wed 09:17:37 PM 39.2950 -96.1930 71° East 535 616 36,600 -159 Descending FlightAware
Wed 09:18:22 PM 39.3290 -96.0570 72° East 526 605 35,900 -988 Descending FlightAware
Wed 09:19:02 PM 39.3610 -95.9290 72° East 522 601 35,200 -988 Descending FlightAware
Wed 09:19:47 PM 39.3950 -95.7930 72° East 539 620 34,500 -847 Descending FlightAware
Wed 09:20:27 PM 39.4200 -95.6970 71° East 538 619 34,000 -975 Descending FlightAware
Wed 09:21:07 PM 39.4540 -95.5570 72° East 536 617 33,200 -706 Descending FlightAware
Wed 09:21:52 PM 39.4760 -95.4670 72° East 536 617 33,000 -141 Descending FlightAware
Wed 09:22:32 PM 39.5420 -95.1910 73° East 536 617 33,000  Level FlightAware
Wed 09:23:17 PM 39.5770 -95.0470 72° East 540 621 33,000  Level FlightAware
Wed 09:23:57 PM 39.6060 -94.9230 73° East 540 621 33,000  Level FlightAware
Wed 09:24:37 PM 39.6360 -94.8010 72° East 539 620 33,000  Level FlightAware
Wed 09:25:22 PM 39.6680 -94.6660 73° East 538 619 33,000  Level FlightAware
Wed 09:26:02 PM 39.6970 -94.5420 73° East 538 619 33,000  Level FlightAware
Wed 09:26:47 PM 39.7300 -94.4000 73° East 539 620 33,000  Level FlightAware
Wed 09:27:27 PM 39.7590 -94.2740 73° East 541 623 33,000  Level FlightAware
Wed 09:28:12 PM 39.7920 -94.1360 73° East 541 623 33,000  Level FlightAware
Wed 09:28:52 PM 39.8210 -94.0110 73° East 542 624 33,000  Level FlightAware
Wed 09:29:32 PM 39.8490 -93.8870 74° East 541 623 33,000  Level FlightAware
Wed 09:30:17 PM 39.8820 -93.7510 72° East 538 619 33,000  Level FlightAware
Wed 09:30:57 PM 39.9190 -93.6300 68° East 542 624 33,000  Level FlightAware
Wed 09:31:37 PM 39.9550 -93.5060 69° East 542 624 33,000  Level FlightAware
Wed 09:32:22 PM 39.9960 -93.3700 68° East 544 626 33,000  Level FlightAware
Wed 09:33:02 PM 40.0330 -93.2430 69° East 544 626 33,000  Level FlightAware
Wed 09:33:47 PM 40.0720 -93.1100 69° East 544 626 33,000  Level FlightAware
Wed 09:34:27 PM 40.1080 -92.9870 69° East 544 626 33,000  Level FlightAware
Wed 09:35:07 PM 40.1440 -92.8630 69° East 544 626 33,000  Level FlightAware
Wed 09:35:52 PM 40.1840 -92.7230 69° East 545 627 33,000  Level FlightAware
Wed 09:36:32 PM 40.2190 -92.5990 70° East 544 626 33,000  Level FlightAware
Wed 09:37:17 PM 40.2580 -92.4640 69° East 543 625 33,000  Level FlightAware
Wed 09:37:57 PM 40.2930 -92.3410 70° East 540 621 33,000  Level FlightAware
Wed 09:38:37 PM 40.3280 -92.2170 70° East 540 621 33,000  Level FlightAware
Wed 09:39:22 PM 40.3640 -92.0870 70° East 540 621 33,000  Level FlightAware
Wed 09:40:02 PM 40.3990 -91.9630 70° East 539 620 33,000  Level FlightAware
Wed 09:40:47 PM 40.4400 -91.8180 70° East 539 620 33,000  Level FlightAware
Wed 09:41:27 PM 40.4730 -91.6960 70° East 541 623 33,000  Level FlightAware
Wed 09:42:12 PM 40.5100 -91.5620 70° East 541 623 33,000  Level FlightAware
Wed 09:42:47 PM 40.5390 -91.4570 70° East 541 623 33,000  Level FlightAware
Wed 09:43:32 PM 40.5850 -91.3140 67° East 539 620 33,000  Level FlightAware
Wed 09:44:12 PM 40.6250 -91.1940 66° East 540 621 33,000  Level FlightAware
Wed 09:44:57 PM 40.6710 -91.0590 66° East 540 621 33,000  Level FlightAware
Wed 09:45:42 PM 40.7170 -90.9240 66° East 540 621 33,000  Level FlightAware
Wed 09:46:12 PM 40.7450 -90.8410 66° East 541 623 33,000  Level FlightAware
Wed 09:47:17 PM 40.8150 -90.6360 66° East 542 624 33,000 -109 Level FlightAware
Wed 09:48:02 PM 40.8580 -90.5060 66° East 541 623 32,800 -600 Descending FlightAware
Wed 09:48:37 PM 40.8940 -90.3960 67° East 538 619 32,200 -1,275 Descending FlightAware
Wed 09:49:22 PM 40.9370 -90.2670 66° East 531 611 31,100 -1,933 Descending FlightAware
Wed 09:50:07 PM 40.9840 -90.1270 66° East 518 596 29,300 -2,329 Descending FlightAware
Wed 09:50:47 PM 41.0180 -90.0230 67° East 504 580 27,800 -2,325 Descending FlightAware
Wed 09:51:27 PM 41.0570 -89.9040 66° East 486 559 26,200 -2,325 Descending FlightAware
Wed 09:52:07 PM 41.0930 -89.7950 66° East 472 543 24,700 -1,553 Descending FlightAware
Wed 09:52:52 PM 41.1300 -89.6810 67° East 472 543 24,000 -800 Descending FlightAware
Wed 09:53:37 PM 41.1710 -89.5600 66° East 468 539 23,500 -1,341 Descending FlightAware
Wed 09:54:17 PM 41.2120 -89.4580 62° Northeast 454 522 22,100 -2,118 Descending FlightAware
Wed 09:55:02 PM 41.2550 -89.3520 62° Northeast 438 504 20,500 -2,118 Descending FlightAware
Wed 09:55:42 PM 41.2940 -89.2560 62° Northeast 428 493 19,100 -2,025 Descending FlightAware
Wed 09:56:22 PM 41.3290 -89.1680 62° Northeast 420 483 17,800 -2,047 Descending FlightAware
Wed 09:57:07 PM 41.3710 -89.0650 61° Northeast 405 466 16,200 -2,047 Descending FlightAware
Wed 09:57:47 PM 41.4050 -88.9790 62° Northeast 391 450 14,900 -1,950 Descending FlightAware
Wed 09:58:27 PM 41.4380 -88.8950 62° Northeast 376 433 13,600 -1,835 Descending FlightAware
Wed 09:59:12 PM 41.4740 -88.8050 62° Northeast 374 430 12,300 -1,765 Descending FlightAware
Wed 09:59:52 PM 41.5060 -88.7240 62° Northeast 368 423 11,100 -1,125 Descending FlightAware
Wed 10:00:32 PM 41.5380 -88.6430 62° Northeast 364 419 10,800 -212 Descending FlightAware
Wed 10:01:17 PM 41.5720 -88.5550 63° Northeast 361 415 10,800  Level FlightAware
Wed 10:02:02 PM 41.6090 -88.4670 61° Northeast 359 413 10,800  Level FlightAware
Wed 10:02:42 PM 41.6500 -88.3960 52° Northeast 357 411 10,800  Level FlightAware
Wed 10:03:27 PM 41.6950 -88.3190 52° Northeast 347 399 10,800 -141 Level FlightAware
Wed 10:04:07 PM 41.7330 -88.2550 51° Northeast 308 354 10,600 -686 Descending FlightAware
Wed 10:04:37 PM 41.7600 -88.2090 52° Northeast 301 346 10,000 -1,309 Descending FlightAware
Wed 10:05:02 PM 41.7810 -88.1730 52° Northeast 298 343 9,400 -1,527 Descending FlightAware
Wed 10:05:32 PM 41.8060 -88.1290 53° Northeast 296 341 8,600 -1,418 Descending FlightAware
Wed 10:05:57 PM 41.8250 -88.0950 53° Northeast 295 339 8,100 -1,309 Descending FlightAware
Wed 10:06:27 PM 41.8500 -88.0500 53° Northeast 291 335 7,400 -1,091 Descending FlightAware
Wed 10:06:52 PM 41.8690 -88.0170 52° Northeast 278 320 7,100 -545 Descending FlightAware
Wed 10:07:22 PM 41.8840 -87.9680 68° East 264 304 6,900 -343 Descending FlightAware
Wed 10:07:27 PM 41.8840 -87.9630 90° East 262 302 6,900 -150 Level FlightAware
Wed 10:08:02 PM 41.8840 -87.9110 90° East 250 288 6,800  Descending FlightAware
Wed 10:08:32 PM 41.8840 -87.8620 90° East 241 277 6,900  Climbing FlightAware
Wed 10:09:02 PM 41.8850 -87.8200 88° East 210 242 6,800 -655 Descending FlightAware
Wed 10:09:27 PM 41.8850 -87.7880 90° East 206 237 6,300 -1,091 Descending FlightAware
Wed 10:09:57 PM 41.8840 -87.7500 92° East 202 232 5,800 -873 Descending FlightAware
Wed 10:10:22 PM 41.8840 -87.7240 90° East 198 228 5,500 -1,091 Descending FlightAware
Wed 10:10:52 PM 41.8840 -87.6840 90° East 201 231 4,800 -1,300 Descending FlightAware
Wed 10:11:22 PM 41.8880 -87.6470 82° East 202 232 4,200 -1,200 Descending FlightAware
Wed 10:11:32 PM 41.8950 -87.6380 44° Northeast 195 224 4,000 -960 Descending FlightAware
Wed 10:11:47 PM 41.9070 -87.6330 17° North 185 213 3,800 -300 Descending FlightAware
Wed 10:12:12 PM 41.9290 -87.6310 North 184 212 3,800  Level FlightAware
Wed 10:12:32 PM 41.9420 -87.6400 333° Northwest 162 186 3,800  Level FlightAware
Wed 10:12:57 PM 41.9530 -87.6610 305° West 161 185 3,800 -436 Level FlightAware
Wed 10:13:27 PM 41.9660 -87.6870 304° West 161 185 3,400 -800 Descending FlightAware
Wed 10:13:42 PM 41.9680 -87.6990 283° West 155 178 3,200 -750 Descending FlightAware
Wed 10:14:07 PM 41.9690 -87.7230 273° West 153 176 2,900 -800 Descending FlightAware
Wed 10:14:12 PM 41.9690 -87.7290 270° West 152 175 2,800 -900 Descending FlightAware
Wed 10:15:07 PM 41.9690 -87.7800 270° West 150 173 2,000 -800 Descending FlightAware
Wed 10:15:27 PM 41.9690 -87.7940 270° West 136 157 1,800 -655 Descending FlightAware
Wed 10:16:02 PM 41.9690 -87.8270 270° West 137 158 1,400 -700 Descending FlightAware
Wed 10:16:27 PM 41.9690 -87.8480 270° West 140 161 1,100 -800 Descending FlightAware
Wed 10:16:47 PM 41.9690 -87.8660 270° West 148 170 800 -900 Descending FlightAware

Login

Don't have an account? Register now (free) for customized features, flight alerts, and more!